Time;durP1;ratioP1;P1;durP2;ratioP2;P2;SDS_P1;SDS_P2;PMS_P1;PMS_P2;Temp;Humidity;BMP_temperature;BMP_pressure;BME280_temperature;BME280_humidity;BME280_pressure;Samples;Min_cycle;Max_cycle;Signal;HPM_P1;HPM_P2
2023/06/25 00:00:50;;;;;;;23.00;13.80;;;;;;;14.34;80.24;100687.94;137162;1275;22430;-75
2023/06/25 00:04:11;;;;;;;22.30;12.70;;;;;;;14.29;80.23;100688.88;137209;1275;22447;-74
2023/06/25 00:07:45;;;;;;;21.50;16.00;;;;;;;14.23;80.51;100688.80;137142;1275;22495;-74
2023/06/25 00:10:47;;;;;;;25.70;13.60;;;;;;;14.18;80.65;100687.34;137161;1275;23116;-75
2023/06/25 00:13:51;;;;;;;24.70;13.80;;;;;;;14.13;80.57;100687.67;137197;1275;22427;-76
2023/06/25 00:17:13;;;;;;;23.70;14.10;;;;;;;14.08;80.59;100687.36;137182;1275;22455;-77
2023/06/25 00:20:20;;;;;;;24.40;13.40;;;;;;;14.01;80.34;100688.30;137218;1275;22464;-76
2023/06/25 00:23:21;;;;;;;19.10;13.60;;;;;;;13.93;80.21;100685.65;137170;1275;22423;-76
2023/06/25 00:26:22;;;;;;;17.60;13.30;;;;;;;13.86;80.26;100688.55;136948;1275;23640;-76
2023/06/25 00:29:26;;;;;;;18.80;12.20;;;;;;;13.81;80.62;100690.70;137157;1275;22535;-75
2023/06/25 00:32:30;;;;;;;21.40;11.90;;;;;;;13.79;80.64;100687.95;137192;1275;22464;-74
2023/06/25 00:36:16;;;;;;;17.00;13.40;;;;;;;13.75;80.66;100684.84;137118;1275;22345;-75
2023/06/25 00:39:22;;;;;;;22.40;13.60;;;;;;;13.73;80.98;100681.55;137204;1275;23145;-75
2023/06/25 00:42:43;;;;;;;20.30;13.10;;;;;;;13.70;81.05;100676.73;137155;1275;22354;-77
2023/06/25 00:45:50;;;;;;;20.10;13.30;;;;;;;13.69;81.11;100677.73;137211;1275;22372;-75
2023/06/25 00:49:15;;;;;;;20.70;11.50;;;;;;;13.63;81.01;100677.11;137012;1275;22393;-75
2023/06/25 00:52:20;;;;;;;16.10;11.70;;;;;;;13.58;80.96;100678.60;137143;1275;22383;-76
2023/06/25 00:55:25;;;;;;;15.70;11.50;;;;;;;13.56;81.24;100677.65;137207;1275;22438;-76
2023/06/25 00:58:37;;;;;;;29.00;12.10;;;;;;;13.55;81.39;100678.77;137163;1275;22413;-75
2023/06/25 01:01:54;;;;;;;17.50;11.40;;;;;;;13.54;81.35;100677.09;137192;1275;22413;-74
2023/06/25 01:05:11;;;;;;;12.90;9.70;;;;;;;13.50;81.31;100675.27;137179;1275;23227;-74
2023/06/25 01:08:14;;;;;;;16.30;10.80;;;;;;;13.46;81.65;100674.58;137153;1271;22438;-76
2023/06/25 01:11:18;;;;;;;16.70;10.00;;;;;;;13.42;81.35;100673.60;136955;1275;23037;-74
2023/06/25 01:14:22;;;;;;;22.10;10.20;;;;;;;13.39;81.71;100674.64;137149;1275;23293;-75
2023/06/25 01:17:26;;;;;;;18.10;10.00;;;;;;;13.36;81.78;100671.61;137177;1275;22156;-75
2023/06/25 01:20:29;;;;;;;14.80;9.30;;;;;;;13.32;81.73;100666.67;137217;1275;22657;-74
2023/06/25 01:23:48;;;;;;;18.30;10.10;;;;;;;13.28;81.89;100656.91;137151;1275;22256;-75
2023/06/25 01:27:00;;;;;;;15.40;10.20;;;;;;;13.25;82.07;100656.30;137176;1275;23193;-74
2023/06/25 01:30:11;;;;;;;19.40;11.00;;;;;;;13.20;82.07;100658.30;137157;1275;22352;-74
2023/06/25 01:33:25;;;;;;;;;;;;;;;;;;;;;
2023/06/25 01:36:29;;;;;;;12.90;9.60;;;;;;;13.15;82.27;100651.26;137161;1275;22378;-75
2023/06/25 01:39:33;;;;;;;15.70;9.90;;;;;;;13.14;82.38;100651.92;137152;1275;22431;-74
2023/06/25 01:42:50;;;;;;;;;;;;;;;;;;;;;
2023/06/25 01:46:01;;;;;;;12.90;9.80;;;;;;;13.04;82.20;100648.05;137182;1275;22420;-76
2023/06/25 01:49:25;;;;;;;18.60;10.40;;;;;;;12.97;82.29;100643.73;137173;1275;22368;-75
2023/06/25 01:52:26;;;;;;;18.60;10.00;;;;;;;12.91;82.40;100639.86;137140;1275;23153;-74
2023/06/25 01:55:33;;;;;;;18.20;10.80;;;;;;;12.87;82.45;100635.70;137130;1275;22424;-74
2023/06/25 01:58:43;;;;;;;20.30;10.20;;;;;;;12.83;82.63;100637.57;136982;1275;22423;-74
2023/06/25 02:01:44;;;;;;;21.20;10.30;;;;;;;12.82;82.67;100641.08;137155;1268;22438;-74
2023/06/25 02:05:06;;;;;;;17.90;8.80;;;;;;;12.79;82.33;100638.50;137180;1275;22383;-74
2023/06/25 02:08:39;;;;;;;;;;;;;;;;;;;;;
2023/06/25 02:11:53;;;;;;;24.50;12.30;;;;;;;12.68;82.66;100639.05;137180;1275;23057;-75
2023/06/25 02:15:14;;;;;;;26.50;10.60;;;;;;;12.66;82.83;100644.25;137153;1273;22355;-76
2023/06/25 02:18:30;;;;;;;18.20;11.80;;;;;;;12.62;82.97;100639.70;137176;1275;22442;-74
2023/06/25 02:21:40;;;;;;;21.10;11.90;;;;;;;12.61;83.21;100639.06;137116;1275;23190;-75
2023/06/25 02:24:41;;;;;;;22.70;12.10;;;;;;;12.60;83.17;100640.13;137183;1275;22242;-76
2023/06/25 02:27:48;;;;;;;16.20;11.30;;;;;;;12.57;83.07;100638.29;137188;1275;22342;-73
2023/06/25 02:30:49;;;;;;;24.10;10.80;;;;;;;12.52;83.29;100639.66;137177;1275;22355;-74
2023/06/25 02:34:21;;;;;;;;;;;;;;;;;;;;;
2023/06/25 02:37:45;;;;;;;15.80;10.10;;;;;;;12.49;83.32;100636.95;137123;1275;22213;-74
2023/06/25 02:41:04;;;;;;;;;;;;;;;;;;;;;
2023/06/25 02:44:14;;;;;;;18.60;10.40;;;;;;;12.49;83.85;100636.23;137031;1275;22398;-74
2023/06/25 02:47:31;;;;;;;15.90;10.50;;;;;;;12.52;84.04;100633.83;137182;1275;22376;-74
2023/06/25 02:50:36;;;;;;;15.60;12.10;;;;;;;12.58;84.37;100637.80;137079;1275;22379;-73
2023/06/25 02:53:45;;;;;;;16.80;12.60;;;;;;;12.63;84.59;100642.29;137167;1275;23616;-74
2023/06/25 02:57:07;;;;;;;18.30;11.20;;;;;;;12.65;84.60;100641.66;137187;1275;22427;-73
2023/06/25 03:00:31;;;;;;;17.40;11.00;;;;;;;12.68;84.67;100638.66;137200;1275;22219;-73
2023/06/25 03:03:38;;;;;;;20.30;10.90;;;;;;;12.71;84.56;100640.77;137194;1275;22377;-74
2023/06/25 03:07:11;;;;;;;19.10;10.70;;;;;;;12.71;84.50;100638.86;137111;1275;22426;-74
2023/06/25 03:10:39;;;;;;;18.00;11.40;;;;;;;12.70;84.55;100640.92;137221;1275;22347;-74
2023/06/25 03:14:08;;;;;;;;;;;;;;;;;;;;;
2023/06/25 03:17:30;;;;;;;17.80;10.60;;;;;;;12.87;84.96;100642.80;137181;1275;22465;-75
2023/06/25 03:20:54;;;;;;;17.40;11.70;;;;;;;12.96;84.97;100642.28;137181;1275;22517;-74
2023/06/25 03:24:01;;;;;;;18.40;11.80;;;;;;;13.12;85.28;100640.75;137184;1275;22387;-74
2023/06/25 03:27:11;;;;;;;14.80;11.00;;;;;;;13.30;85.29;100637.69;137143;1275;22352;-74
2023/06/25 03:30:21;;;;;;;16.30;11.40;;;;;;;13.53;85.26;100633.31;137176;1274;22210;-74
2023/06/25 03:33:45;;;;;;;15.10;11.30;;;;;;;13.82;85.28;100632.39;137133;1275;23461;-74
2023/06/25 03:36:57;;;;;;;15.30;11.20;;;;;;;14.13;84.88;100628.39;136959;1275;22355;-74
2023/06/25 03:39:59;;;;;;;15.00;10.50;;;;;;;14.47;84.66;100629.41;137131;1268;22345;-74
2023/06/25 03:43:23;;;;;;;14.40;10.60;;;;;;;14.78;84.24;100622.66;137178;1275;22358;-74
2023/06/25 03:47:19;;;;;;;16.40;9.20;;;;;;;15.13;83.76;100622.75;137221;1275;22510;-75
2023/06/25 03:50:23;;;;;;;12.20;9.60;;;;;;;15.52;83.22;100622.87;137163;1275;22357;-74
2023/06/25 03:53:29;;;;;;;17.80;9.20;;;;;;;15.80;82.73;100626.80;137151;1275;22456;-77
2023/06/25 03:56:30;;;;;;;12.50;8.80;;;;;;;16.15;82.51;100626.15;137023;1275;22437;-74
2023/06/25 03:59:34;;;;;;;14.00;9.30;;;;;;;16.57;82.31;100624.88;137194;1268;23027;-76
2023/06/25 04:02:49;;;;;;;14.40;9.90;;;;;;;17.08;82.11;100626.71;137174;1275;22336;-74
2023/06/25 04:06:22;;;;;;;;;;;;;;;;;;;;;
2023/06/25 04:10:28;;;;;;;16.80;11.00;;;;;;;17.96;79.84;100632.78;137152;1274;22401;-75
2023/06/25 04:13:33;;;;;;;11.60;9.50;;;;;;;18.34;79.15;100624.02;137094;1275;22385;-75
2023/06/25 04:16:45;;;;;;;12.60;9.80;;;;;;;18.84;78.87;100619.55;137149;1275;22360;-76
2023/06/25 04:19:56;;;;;;;;;;;;;;;;;;;;;
2023/06/25 04:23:07;;;;;;;12.20;9.20;;;;;;;19.88;77.09;100618.29;137088;1275;22420;-76
2023/06/25 04:26:37;;;;;;;;;;;;;;;;;;;;;
2023/06/25 04:29:57;;;;;;;10.80;9.50;;;;;;;20.92;74.96;100613.29;137166;1268;22419;-76
2023/06/25 04:33:08;;;;;;;13.90;9.30;;;;;;;21.42;73.89;100618.62;137100;1275;22364;-76
2023/06/25 04:36:17;;;;;;;13.50;9.40;;;;;;;21.66;72.79;100619.95;137084;1275;22379;-76
2023/06/25 04:39:42;;;;;;;11.50;9.10;;;;;;;21.86;71.42;100618.14;137075;1275;23194;-77
2023/06/25 04:42:59;;;;;;;12.10;8.40;;;;;;;21.97;70.82;100620.02;137178;1275;22353;-76
2023/06/25 04:46:23;;;;;;;12.80;9.10;;;;;;;22.30;70.12;100623.33;136884;1275;22368;-76
2023/06/25 04:49:51;;;;;;;12.90;9.40;;;;;;;22.57;69.36;100625.19;137103;1275;22407;-76
2023/06/25 04:53:30;;;;;;;10.40;9.40;;;;;;;22.95;68.47;100617.77;137182;1275;22430;-77
2023/06/25 04:56:59;;;;;;;12.00;8.70;;;;;;;23.15;67.50;100616.88;137134;1275;22425;-77
2023/06/25 05:00:06;;;;;;;13.70;8.90;;;;;;;23.34;66.75;100608.61;137134;1275;22452;-78
2023/06/25 05:03:11;;;;;;;12.60;9.20;;;;;;;23.46;66.04;100607.29;136945;1275;23279;-76
2023/06/25 05:06:20;;;;;;;12.70;8.90;;;;;;;23.67;65.50;100609.86;137138;1271;22363;-76
2023/06/25 05:09:37;;;;;;;;;;;;;;;;;;;;;
2023/06/25 05:13:26;;;;;;;;;;;;;;;;;;;;;
2023/06/25 05:17:38;;;;;;;;;;;;;;;;;;;;;
2023/06/25 05:21:15;;;;;;;9.90;7.60;;;;;;;24.61;62.42;100618.98;137207;1275;22376;-77
2023/06/25 05:24:28;;;;;;;10.70;8.30;;;;;;;24.93;61.85;100619.99;137070;1275;22372;-77
2023/06/25 05:28:07;;;;;;;;;;;;;;;;;;;;;
2023/06/25 05:31:38;;;;;;;9.10;7.80;;;;;;;25.13;60.01;100615.57;137170;1275;22396;-76
2023/06/25 05:34:55;;;;;;;9.10;7.30;;;;;;;25.45;59.45;100621.69;137171;1275;23058;-76
2023/06/25 05:37:56;;;;;;;12.80;7.30;;;;;;;25.65;58.48;100619.85;137140;1275;22461;-75
2023/06/25 05:41:01;;;;;;;9.10;7.10;;;;;;;25.79;57.82;100621.55;137132;1275;23262;-76
2023/06/25 05:44:11;;;;;;;9.20;7.10;;;;;;;25.90;57.53;100622.70;137036;1275;22194;-76
2023/06/25 05:47:42;;;;;;;;;;;;;;;26.10;56.74;100623.12;137176;1275;22452;-78
2023/06/25 05:51:25;;;;;;;8.00;6.40;;;;;;;26.30;55.98;100627.37;137195;1275;22414;-76
2023/06/25 05:54:33;;;;;;;13.10;7.60;;;;;;;26.46;55.11;100622.45;137226;1275;22372;-76
2023/06/25 05:57:48;;;;;;;8.00;7.20;;;;;;;26.53;54.62;100625.69;137181;1275;23104;-77
2023/06/25 06:01:00;;;;;;;;;;;;;;;;;;;;;
2023/06/25 06:04:08;;;;;;;10.90;7.90;;;;;;;26.84;54.32;100621.02;137098;1275;22437;-76
2023/06/25 06:07:35;;;;;;;9.00;7.30;;;;;;;26.97;53.92;100621.09;137151;1275;22937;-77
2023/06/25 06:10:52;;;;;;;;;;;;;;;;;;;;;
2023/06/25 06:14:23;;;;;;;;;;;;;;;;;;;;;
2023/06/25 06:17:36;;;;;;;7.70;5.90;;;;;;;27.56;52.53;100616.38;137225;1269;22089;-76
2023/06/25 06:20:58;;;;;;;8.30;6.50;;;;;;;27.73;51.92;100615.23;137008;1275;23150;-77
2023/06/25 06:24:03;;;;;;;12.70;6.00;;;;;;;27.84;51.35;100615.12;137226;1275;22448;-77
2023/06/25 06:28:07;;;;;;;7.40;6.20;;;;;;;27.86;50.92;100618.98;137188;1275;22410;-81
2023/06/25 06:30:53;;;;;;;7.40;6.30;;;;;;;27.89;50.20;100620.36;137126;1275;22431;-80
2023/06/25 06:34:17;;;;;;;6.50;5.80;;;;;;;27.97;49.96;100623.87;137047;1275;22965;-80
2023/06/25 06:37:38;;;;;;;7.50;5.50;;;;;;;28.25;49.29;100627.71;137220;1268;22457;-79
2023/06/25 06:41:10;;;;;;;5.90;4.90;;;;;;;28.43;48.53;100624.89;137015;1275;23808;-79
2023/06/25 06:44:28;;;;;;;7.90;5.20;;;;;;;28.61;47.88;100623.20;137135;1275;22236;-78
2023/06/25 06:48:11;;;;;;;6.00;5.30;;;;;;;28.56;46.92;100618.90;137137;1275;22484;-80
2023/06/25 06:51:16;;;;;;;5.90;4.70;;;;;;;28.37;46.28;100620.84;137139;1275;22418;-81
2023/06/25 06:54:19;;;;;;;7.80;4.70;;;;;;;28.41;46.03;100621.17;137150;1275;23068;-81
2023/06/25 06:57:28;;;;;;;8.60;5.10;;;;;;;28.51;45.84;100621.69;137008;1275;22369;-81
2023/06/25 07:00:50;;;;;;;7.10;4.20;;;;;;;28.41;44.89;100613.70;137175;1275;22422;-82
2023/06/25 07:07:51;;;;;;;6.90;4.60;;;;;;;28.45;44.65;100610.00;137109;1275;22438;-80
2023/06/25 07:11:22;;;;;;;;;;;;;;;;;;;;;
2023/06/25 07:14:43;;;;;;;6.00;4.90;;;;;;;28.65;44.51;100613.80;137111;1275;22480;-80
2023/06/25 07:17:54;;;;;;;5.30;4.80;;;;;;;28.85;44.50;100609.88;137158;1275;23032;-79
2023/06/25 07:24:39;;;;;;;5.00;4.50;;;;;;;28.84;43.95;100609.56;137176;1275;22228;-78
2023/06/25 07:27:49;;;;;;;4.90;4.40;;;;;;;28.99;43.74;100611.98;137187;1275;22395;-82
2023/06/25 07:30:58;;;;;;;5.60;4.70;;;;;;;29.06;43.23;100611.61;137140;1271;22376;-80
2023/06/25 07:34:09;;;;;;;7.10;4.70;;;;;;;29.17;43.11;100605.17;137238;1266;22362;-81
2023/06/25 07:37:10;;;;;;;4.50;4.10;;;;;;;29.20;42.75;100606.48;137099;1275;22447;-78
2023/06/25 07:40:13;;;;;;;5.30;4.80;;;;;;;29.28;42.48;100602.06;137099;1275;22483;-78
2023/06/25 07:43:22;;;;;;;7.30;4.20;;;;;;;29.36;41.98;100600.84;137182;1275;23255;-79
2023/06/25 07:46:24;;;;;;;6.00;3.90;;;;;;;29.34;41.33;100601.94;137159;1275;22391;-80
2023/06/25 07:49:31;;;;;;;5.30;3.70;;;;;;;29.46;40.98;100597.50;137190;1275;23116;-80
2023/06/25 07:53:08;;;;;;;5.10;3.70;;;;;;;29.47;41.00;100596.20;137160;1275;23118;-78
2023/06/25 07:56:43;;;;;;;;;;;;;;;;;;;;;
2023/06/25 07:59:53;;;;;;;4.40;4.00;;;;;;;29.40;39.71;100590.81;137161;1275;22473;-76
2023/06/25 08:02:54;;;;;;;4.60;4.00;;;;;;;29.39;39.93;100590.55;137128;1275;22409;-80
2023/06/25 08:06:14;;;;;;;4.50;4.10;;;;;;;29.60;40.17;100590.55;137157;1275;23238;-77
2023/06/25 08:09:24;;;;;;;5.20;3.70;;;;;;;29.81;40.07;100588.16;137101;1275;22436;-78
2023/06/25 08:12:31;;;;;;;4.80;3.70;;;;;;;29.84;39.38;100590.42;137142;1275;22397;-81
2023/06/25 08:16:16;;;;;;;6.80;3.80;;;;;;;29.85;39.02;100588.95;137013;1275;22395;-77
2023/06/25 08:19:23;;;;;;;6.00;3.60;;;;;;;29.82;38.42;100590.77;137147;1275;22492;-77
2023/06/25 08:22:47;;;;;;;4.10;3.20;;;;;;;29.67;38.48;100590.25;137175;1275;22362;-77
2023/06/25 08:26:06;;;;;;;4.00;3.60;;;;;;;29.59;38.15;100591.60;137143;1275;23048;-77
2023/06/25 08:29:12;;;;;;;5.50;4.10;;;;;;;29.53;38.60;100588.99;137112;1275;22385;-76
2023/06/25 08:32:19;;;;;;;3.80;3.50;;;;;;;29.74;38.50;100586.33;137164;1275;22194;-77
2023/06/25 08:35:34;;;;;;;5.50;3.70;;;;;;;29.91;38.18;100587.80;137136;1270;22346;-76
2023/06/25 08:38:38;;;;;;;4.50;4.00;;;;;;;29.97;37.67;100587.00;137176;1275;22384;-76
2023/06/25 08:41:44;;;;;;;3.40;3.10;;;;;;;29.82;37.22;100581.52;137167;1275;22381;-77
2023/06/25 08:44:47;;;;;;;3.50;3.20;;;;;;;29.88;37.44;100579.35;137133;1275;22513;-77
2023/06/25 08:48:05;;;;;;;4.90;3.60;;;;;;;30.08;37.11;100580.02;137116;1275;22439;-77
2023/06/25 08:51:17;;;;;;;5.00;3.70;;;;;;;30.30;37.22;100580.56;137167;1275;23212;-77
2023/06/25 08:54:18;;;;;;;7.30;3.50;;;;;;;30.50;37.13;100580.13;137149;1275;23127;-79
2023/06/25 08:57:32;;;;;;;4.90;3.60;;;;;;;30.48;36.52;100578.98;137149;1275;23136;-77
2023/06/25 09:00:32;;;;;;;3.70;3.40;;;;;;;30.40;36.19;100575.29;137141;1275;22436;-76
2023/06/25 09:03:52;;;;;;;3.80;3.40;;;;;;;30.32;36.10;100571.20;137151;1270;22435;-77
2023/06/25 09:07:15;;;;;;;4.00;3.50;;;;;;;30.43;36.42;100575.42;137108;1275;23229;-77
2023/06/25 09:10:20;;;;;;;4.50;3.40;;;;;;;30.53;35.90;100579.44;137160;1275;22435;-76
2023/06/25 09:13:38;;;;;;;;;;;;;;;;;;;;;
2023/06/25 09:16:54;;;;;;;4.40;3.40;;;;;;;29.97;35.23;100571.73;137153;1275;23094;-77
2023/06/25 09:20:10;;;;;;;4.20;3.50;;;;;;;29.84;35.78;100573.64;137160;1275;22487;-77
2023/06/25 09:23:27;;;;;;;3.50;3.10;;;;;;;29.94;36.00;100573.45;137180;1275;23115;-77
2023/06/25 09:26:53;;;;;;;4.30;3.50;;;;;;;30.12;35.61;100566.64;137073;1275;22374;-73
2023/06/25 09:29:57;;;;;;;5.40;4.10;;;;;;;30.04;36.11;100566.10;137161;1275;23114;-79
2023/06/25 09:33:01;;;;;;;4.40;3.50;;;;;;;29.63;36.40;100561.08;137022;1275;22361;-76
2023/06/25 09:36:04;;;;;;;4.50;4.10;;;;;;;29.51;36.59;100558.02;137105;1275;22344;-75
2023/06/25 09:39:12;;;;;;;6.90;4.40;;;;;;;29.58;36.49;100557.10;137180;1275;23046;-76
2023/06/25 09:42:18;;;;;;;4.30;3.90;;;;;;;29.59;36.09;100561.36;137133;1275;22375;-77
2023/06/25 09:45:26;;;;;;;5.30;3.90;;;;;;;29.50;36.45;100559.16;137162;1275;22446;-77
2023/06/25 09:48:31;;;;;;;6.00;3.80;;;;;;;29.41;37.30;100558.51;137144;1275;22416;-76
2023/06/25 09:52:18;;;;;;;6.70;4.00;;;;;;;29.35;37.15;100558.27;137176;1275;22434;-76
2023/06/25 09:55:32;;;;;;;4.10;3.40;;;;;;;29.55;37.66;100556.25;137144;1275;22360;-76
2023/06/25 09:58:38;;;;;;;3.90;3.60;;;;;;;30.08;37.68;100554.26;137181;1275;22396;-76
2023/06/25 10:01:40;;;;;;;3.90;3.50;;;;;;;30.29;36.51;100555.09;137140;1275;23087;-77
2023/06/25 10:05:07;;;;;;;4.40;3.40;;;;;;;29.98;36.32;100558.83;137056;1268;22384;-76
2023/06/25 10:08:31;;;;;;;6.60;3.50;;;;;;;29.80;36.82;100553.91;137168;1275;23112;-74
2023/06/25 10:11:32;;;;;;;4.20;3.60;;;;;;;30.03;36.95;100551.06;137139;1275;23029;-73
2023/06/25 10:14:39;;;;;;;4.80;4.10;;;;;;;29.92;36.65;100542.99;137109;1275;22368;-75
2023/06/25 10:17:53;;;;;;;4.60;3.40;;;;;;;29.76;36.96;100543.77;136957;1275;23044;-73
2023/06/25 10:20:58;;;;;;;4.10;3.70;;;;;;;29.53;36.59;100545.38;137072;1275;22096;-73
2023/06/25 10:24:02;;;;;;;5.80;3.80;;;;;;;29.37;36.58;100547.59;136997;1275;22354;-75
2023/06/25 10:27:21;;;;;;;6.60;3.40;;;;;;;29.26;36.62;100544.43;137052;1275;22429;-74
2023/06/25 10:30:38;;;;;;;5.60;4.20;;;;;;;29.37;37.35;100540.05;137008;1275;22263;-74
2023/06/25 10:33:49;;;;;;;4.40;4.00;;;;;;;29.53;37.09;100533.33;137052;1275;23040;-74
2023/06/25 10:36:53;;;;;;;7.30;4.30;;;;;;;29.49;36.90;100532.21;136982;1275;23167;-75
2023/06/25 10:40:01;;;;;;;6.00;3.90;;;;;;;29.54;37.10;100527.42;137203;1275;22437;-74
2023/06/25 10:43:09;;;;;;;4.20;3.80;;;;;;;29.64;36.94;100527.43;136829;1275;23177;-75
2023/06/25 10:46:13;;;;;;;4.20;3.70;;;;;;;29.72;37.14;100526.61;137000;1275;23052;-74
2023/06/25 10:49:19;;;;;;;4.00;3.60;;;;;;;29.56;36.63;100530.16;137152;1275;23177;-74
2023/06/25 10:52:23;;;;;;;4.90;4.00;;;;;;;29.26;36.96;100530.83;137003;1275;22425;-74
2023/06/25 10:55:37;;;;;;;4.20;3.80;;;;;;;29.05;37.25;100523.92;137142;1275;23219;-74
2023/06/25 10:58:41;;;;;;;5.40;4.00;;;;;;;28.96;37.36;100523.34;137132;1271;22368;-76
2023/06/25 11:01:51;;;;;;;4.10;3.70;;;;;;;28.99;37.43;100521.30;137156;1275;22445;-74
2023/06/25 11:05:02;;;;;;;5.60;3.80;;;;;;;29.01;37.59;100519.05;137193;1275;23093;-75
2023/06/25 11:08:07;;;;;;;8.50;4.00;;;;;;;28.87;37.48;100520.09;136965;1275;22475;-74
2023/06/25 11:11:10;;;;;;;5.10;4.20;;;;;;;28.97;37.75;100516.05;137098;1275;22443;-74
2023/06/25 11:14:17;;;;;;;4.90;3.50;;;;;;;28.96;37.60;100511.21;137191;1275;22406;-74
2023/06/25 11:17:18;;;;;;;4.00;3.60;;;;;;;28.97;37.33;100509.73;137138;1275;22372;-75
2023/06/25 11:20:23;;;;;;;4.30;3.40;;;;;;;28.50;37.63;100508.64;137100;1272;22348;-74
2023/06/25 11:23:28;;;;;;;4.20;3.80;;;;;;;28.50;37.80;100501.32;136752;1275;22386;-75
2023/06/25 11:26:38;;;;;;;5.40;3.40;;;;;;;28.64;37.66;100502.42;137169;1273;22383;-73
2023/06/25 11:29:48;;;;;;;4.30;3.80;;;;;;;28.74;37.99;100501.20;137202;1275;23270;-75
2023/06/25 11:32:52;;;;;;;3.90;3.60;;;;;;;28.85;37.94;100491.27;137083;1275;23162;-74
2023/06/25 11:36:09;;;;;;;5.80;3.90;;;;;;;28.82;38.04;100490.46;137163;1275;23100;-75
2023/06/25 11:39:12;;;;;;;4.20;3.50;;;;;;;28.74;38.00;100493.50;137140;1275;22405;-75
2023/06/25 11:42:19;;;;;;;4.10;3.70;;;;;;;28.73;37.98;100489.52;137115;1275;23069;-74
2023/06/25 11:45:23;;;;;;;4.90;3.40;;;;;;;28.75;37.47;100483.98;137189;1275;22379;-75
2023/06/25 11:48:27;;;;;;;4.90;3.80;;;;;;;28.53;37.25;100485.15;137228;1275;22825;-74
2023/06/25 11:51:28;;;;;;;4.80;4.10;;;;;;;28.46;37.93;100484.40;137149;1275;22243;-73
2023/06/25 11:54:29;;;;;;;4.10;3.80;;;;;;;28.50;38.30;100481.45;137118;1275;23317;-73
2023/06/25 11:57:30;;;;;;;4.70;3.70;;;;;;;28.51;38.03;100473.98;137146;1275;23238;-74
2023/06/25 12:00:31;;;;;;;3.60;3.30;;;;;;;28.61;37.62;100473.34;137186;1275;22377;-74
2023/06/25 12:03:34;;;;;;;4.70;3.70;;;;;;;28.48;37.69;100474.09;137014;1275;22522;-74
2023/06/25 12:06:39;;;;;;;6.00;3.70;;;;;;;28.37;37.90;100471.70;136961;1275;23205;-74
2023/06/25 12:09:42;;;;;;;4.20;3.80;;;;;;;28.30;38.45;100466.67;137013;1275;22462;-74
2023/06/25 12:12:47;;;;;;;4.50;3.20;;;;;;;28.36;38.76;100459.80;137224;1275;23139;-75
2023/06/25 12:15:48;;;;;;;5.30;3.60;;;;;;;28.37;38.82;100461.97;137084;1275;22355;-75
2023/06/25 12:18:49;;;;;;;6.30;3.40;;;;;;;28.42;38.26;100462.26;137035;1275;22198;-75
2023/06/25 12:22:00;;;;;;;4.20;3.80;;;;;;;28.40;38.22;100460.06;137144;1275;22363;-76
2023/06/25 12:25:01;;;;;;;6.20;3.80;;;;;;;28.46;38.42;100452.80;137153;1266;22476;-76
2023/06/25 12:28:27;;;;;;;4.30;3.70;;;;;;;28.43;38.03;100447.19;137184;1275;23174;-75
2023/06/25 12:31:32;;;;;;;6.10;3.70;;;;;;;28.17;38.16;100447.00;137138;1275;22373;-76
2023/06/25 12:34:33;;;;;;;3.90;3.30;;;;;;;27.63;38.51;100445.55;137137;1275;22393;-74
2023/06/25 12:37:34;;;;;;;5.60;3.50;;;;;;;27.38;39.20;100443.69;137132;1275;23417;-75
2023/06/25 12:40:41;;;;;;;7.10;3.80;;;;;;;27.49;39.19;100441.67;137149;1275;23341;-74
2023/06/25 12:43:42;;;;;;;4.20;3.80;;;;;;;27.57;38.96;100434.77;137173;1275;22388;-72
2023/06/25 12:46:50;;;;;;;4.80;3.80;;;;;;;27.65;38.95;100435.14;137088;1275;22225;-74
2023/06/25 12:49:51;;;;;;;6.10;3.50;;;;;;;27.68;39.07;100435.80;137192;1275;22439;-77
2023/06/25 12:52:57;;;;;;;3.80;3.50;;;;;;;27.51;38.39;100429.73;137122;1275;22589;-73
2023/06/25 12:56:04;;;;;;;4.70;3.90;;;;;;;27.18;38.88;100428.16;137178;1275;22454;-74
2023/06/25 12:59:07;;;;;;;3.90;3.50;;;;;;;27.23;39.50;100424.33;137155;1275;22412;-75
2023/06/25 13:02:08;;;;;;;4.60;3.40;;;;;;;27.46;39.72;100424.40;137135;1275;23148;-73
2023/06/25 13:05:09;;;;;;;4.20;3.60;;;;;;;27.52;39.43;100424.29;137114;1275;23103;-74
2023/06/25 13:08:16;;;;;;;4.20;3.70;;;;;;;27.54;39.43;100422.17;137003;1275;22462;-75
2023/06/25 13:11:17;;;;;;;4.20;3.50;;;;;;;27.55;38.64;100421.13;137030;1275;22378;-76
2023/06/25 13:14:18;;;;;;;5.50;4.00;;;;;;;27.48;39.03;100426.09;137142;1275;22362;-73
2023/06/25 13:17:28;;;;;;;4.00;3.60;;;;;;;27.55;39.39;100423.20;137067;1271;22343;-73
2023/06/25 13:20:31;;;;;;;;;;;;;;;27.63;39.49;100423.98;136999;1275;23086;-74
2023/06/25 13:23:36;;;;;;;4.90;3.50;;;;;;;27.71;39.06;100422.06;137131;1275;23620;-74
2023/06/25 13:26:36;;;;;;;3.60;3.20;;;;;;;27.71;38.72;100413.60;137101;1275;22473;-74
2023/06/25 13:29:37;;;;;;;4.10;3.50;;;;;;;27.82;39.16;100412.86;137162;1275;22372;-73
2023/06/25 13:32:38;;;;;;;4.40;4.00;;;;;;;27.98;38.94;100401.39;137122;1275;22426;-75
2023/06/25 13:35:42;;;;;;;3.70;3.40;;;;;;;27.94;38.61;100399.54;137168;1275;22366;-76
2023/06/25 13:38:49;;;;;;;4.30;3.70;;;;;;;27.77;38.50;100404.62;137135;1275;22261;-73
2023/06/25 13:41:50;;;;;;;3.90;3.20;;;;;;;27.62;38.57;100406.15;137000;1275;22398;-74
2023/06/25 13:44:51;;;;;;;4.60;3.90;;;;;;;27.72;38.80;100402.00;137199;1275;22379;-74
2023/06/25 13:47:52;;;;;;;5.70;3.60;;;;;;;27.80;39.13;100399.22;137108;1273;23020;-73
2023/06/25 13:50:53;;;;;;;4.40;3.60;;;;;;;27.76;38.61;100393.54;137118;1275;22423;-74
2023/06/25 13:54:05;;;;;;;;;;;;;;;;;;;;;
2023/06/25 13:57:06;;;;;;;6.60;3.90;;;;;;;27.63;38.63;100392.52;136980;1275;22485;-73
2023/06/25 14:00:18;;;;;;;9.40;3.70;;;;;;;27.58;38.64;100388.55;137170;1275;22338;-74
2023/06/25 14:03:19;;;;;;;6.00;3.60;;;;;;;27.53;38.91;100393.77;137140;1273;22418;-73
2023/06/25 14:06:21;;;;;;;6.20;3.80;;;;;;;27.51;38.82;100389.74;137144;1275;23150;-76
2023/06/25 14:09:24;;;;;;;4.40;3.40;;;;;;;27.44;38.85;100383.41;137156;1275;22357;-75
2023/06/25 14:12:26;;;;;;;4.40;4.00;;;;;;;27.38;38.47;100382.83;137149;1275;23539;-76
2023/06/25 14:15:27;;;;;;;4.20;3.60;;;;;;;27.25;38.52;100382.33;136988;1275;22437;-77
2023/06/25 14:18:31;;;;;;;4.40;3.70;;;;;;;27.17;38.90;100383.61;137188;1275;23134;-77
2023/06/25 14:21:45;;;;;;;;;;;;;;;;;;;;;
2023/06/25 14:24:57;;;;;;;4.80;3.40;;;;;;;26.75;39.08;100378.23;137186;1275;23113;-76
2023/06/25 14:28:28;;;;;;;6.50;4.10;;;;;;;26.69;39.84;100374.89;137132;1275;22384;-76
2023/06/25 14:31:29;;;;;;;5.30;4.10;;;;;;;26.81;39.89;100371.10;137145;1275;22398;-78
2023/06/25 14:34:30;;;;;;;4.30;3.90;;;;;;;26.75;39.75;100371.80;137149;1275;22195;-75
2023/06/25 14:37:40;;;;;;;5.00;3.70;;;;;;;26.70;40.15;100364.44;137148;1275;22356;-74
2023/06/25 14:40:43;;;;;;;;;;;;;;;26.72;40.51;100358.52;137158;1275;23257;-76
2023/06/25 14:43:44;;;;;;;4.80;3.90;;;;;;;26.66;40.33;100358.60;137163;1275;22423;-74
2023/06/25 14:46:45;;;;;;;10.00;4.10;;;;;;;26.59;40.28;100358.90;137167;1275;23248;-75
2023/06/25 14:49:52;;;;;;;3.70;3.40;;;;;;;26.56;40.71;100359.71;136886;1275;22489;-74
2023/06/25 14:52:55;;;;;;;6.10;4.00;;;;;;;26.47;40.37;100356.83;137096;1275;23338;-75
2023/06/25 14:55:59;;;;;;;6.40;4.10;;;;;;;26.47;40.51;100356.77;137146;1275;22430;-73
2023/06/25 14:59:00;;;;;;;5.10;3.60;;;;;;;26.47;40.78;100357.25;137203;1275;22496;-78
2023/06/25 15:02:51;;;;;;;6.30;3.60;;;;;;;26.45;40.30;100351.91;137101;1275;23121;-76
2023/06/25 15:05:30;;;;;;;4.80;4.00;;;;;;;26.36;40.63;100347.31;137024;1275;22377;-74
2023/06/25 15:08:33;;;;;;;6.90;3.50;;;;;;;26.38;40.95;100347.48;137074;1275;22371;-75
2023/06/25 15:11:35;;;;;;;5.40;3.90;;;;;;;26.30;40.51;100341.14;137163;1275;22457;-75
2023/06/25 15:14:56;;;;;;;4.80;4.30;;;;;;;26.29;40.97;100341.30;137015;1275;22452;-76
2023/06/25 15:18:02;;;;;;;6.30;3.60;;;;;;;26.32;41.03;100338.59;137148;1275;23141;-76
2023/06/25 15:21:12;;;;;;;4.90;3.60;;;;;;;26.25;40.91;100339.20;137178;1275;22467;-75